Time;durP1;ratioP1;P1;durP2;ratioP2;P2;SDS_P1;SDS_P2;PMS_P1;PMS_P2;Temp;Humidity;BMP_temperature;BMP_pressure;BME280_temperature;BME280_humidity;BME280_pressure;Samples;Min_cycle;Max_cycle;Signal;HPM_P1;HPM_P2
2022/04/07 00:00:09;;;;;;;4.83;3.70;;;10.70;1.00;;;;;;4913056;28;21528;-77
2022/04/07 00:02:39;;;;;;;8.40;3.80;;;10.70;1.00;;;;;;4909094;29;20441;-74
2022/04/07 00:05:06;;;;;;;5.63;3.70;;;10.70;1.00;;;;;;4899760;29;20527;-75
2022/04/07 00:07:34;;;;;;;5.93;3.90;;;10.60;1.00;;;;;;4899110;29;20517;-74
2022/04/07 00:10:01;;;;;;;4.40;3.40;;;10.60;1.00;;;;;;4887874;29;20482;-77
2022/04/07 00:12:27;;;;;;;5.83;3.80;;;10.60;1.00;;;;;;4911065;28;20558;-76
2022/04/07 00:14:59;;;;;;;4.20;3.50;;;10.60;1.00;;;;;;4900272;29;20490;-77
2022/04/07 00:17:26;;;;;;;7.60;3.80;;;10.60;1.00;;;;;;4909344;28;20490;-77
2022/04/07 00:19:59;;;;;;;4.93;3.53;;;10.50;1.00;;;;;;4929824;28;20538;-74
2022/04/07 00:22:26;;;;;;;5.87;3.60;;;10.60;1.00;;;;;;4917258;28;20474;-74
2022/04/07 00:24:52;;;;;;;7.07;3.40;;;10.60;1.00;;;;;;4904777;28;20479;-75
2022/04/07 00:27:19;;;;;;;5.40;3.77;;;10.50;1.00;;;;;;4901455;29;20455;-74
2022/04/07 00:29:46;;;;;;;7.10;3.37;;;10.60;1.00;;;;;;4896436;29;20535;-77
2022/04/07 00:32:13;;;;;;;3.57;3.27;;;10.60;1.00;;;;;;4899171;29;20589;-75
2022/04/07 00:34:43;;;;;;;4.90;2.87;;;10.60;1.00;;;;;;4905718;29;20453;-76
2022/04/07 00:37:11;;;;;;;4.90;2.90;;;10.50;1.00;;;;;;4905689;29;20447;-76
2022/04/07 00:39:38;;;;;;;3.70;3.10;;;10.50;1.00;;;;;;4906716;28;20580;-75
2022/04/07 00:42:05;;;;;;;7.60;4.03;;;10.50;1.00;;;;;;4897021;28;20485;-75
2022/04/07 00:44:31;;;;;;;7.43;3.47;;;10.40;1.00;;;;;;4908794;29;20439;-76
2022/04/07 00:46:59;;;;;;;4.43;3.30;;;10.30;1.00;;;;;;4914468;29;20576;-74
2022/04/07 00:49:26;;;;;;;3.47;2.73;;;10.30;1.00;;;;;;4917915;29;20455;-74
2022/04/07 00:51:54;;;;;;;5.57;3.67;;;10.20;1.00;;;;;;4917075;29;21092;-78
2022/04/07 00:54:22;;;;;;;4.60;3.20;;;10.20;1.00;;;;;;4903414;29;20539;-75
2022/04/07 00:56:49;;;;;;;5.20;3.17;;;10.20;1.00;;;;;;4918721;28;20555;-76
2022/04/07 00:59:21;;;;;;;5.07;2.63;;;10.20;1.00;;;;;;4915829;29;20551;-76
2022/04/07 01:01:47;;;;;;;5.83;3.30;;;10.20;1.00;;;;;;4916389;28;25081;-74
2022/04/07 01:04:19;;;;;;;3.40;3.00;;;10.20;1.00;;;;;;4916748;28;20462;-76
2022/04/07 01:06:47;;;;;;;4.43;3.20;;;10.20;1.00;;;;;;4917113;28;20470;-75
2022/04/07 01:09:19;;;;;;;5.30;3.40;;;10.20;1.00;;;;;;4926187;28;20596;-74
2022/04/07 01:11:48;;;;;;;6.50;3.27;;;10.10;1.00;;;;;;4912750;28;21617;-76
2022/04/07 01:14:19;;;;;;;8.18;3.55;;;10.10;1.00;;;;;;4898551;29;20638;-74
2022/04/07 01:16:46;;;;;;;5.33;3.53;;;10.00;1.00;;;;;;4899038;29;21052;-76
2022/04/07 01:19:12;;;;;;;3.90;3.40;;;10.00;1.00;;;;;;4899146;29;20688;-74
2022/04/07 01:21:41;;;;;;;5.67;3.20;;;10.00;1.00;;;;;;4897206;29;20506;-75
2022/04/07 01:24:09;;;;;;;4.80;3.03;;;10.00;1.00;;;;;;4902119;29;20491;-75
2022/04/07 01:26:43;;;;;;;4.37;3.30;;;10.00;1.00;;;;;;4899855;29;20537;-74
2022/04/07 01:29:11;;;;;;;5.43;4.03;;;10.00;1.00;;;;;;4900178;29;20499;-75
2022/04/07 01:31:40;;;;;;;5.00;3.47;;;10.00;1.00;;;;;;4898866;29;20595;-74
2022/04/07 01:34:13;;;;;;;4.57;3.63;;;10.10;1.00;;;;;;4901498;29;20527;-73
2022/04/07 01:36:42;;;;;;;5.23;3.73;;;10.20;1.00;;;;;;4898806;29;20435;-74
2022/04/07 01:39:10;;;;;;;5.47;4.60;;;10.20;1.00;;;;;;4901187;29;20562;-74
2022/04/07 01:41:44;;;;;;;4.50;3.93;;;10.20;1.00;;;;;;4902995;29;20469;-73
2022/04/07 01:44:12;;;;;;;7.03;4.17;;;10.20;1.00;;;;;;4900888;29;20479;-77
2022/04/07 01:46:40;;;;;;;5.70;3.83;;;10.20;1.00;;;;;;4902626;29;20487;-74
2022/04/07 01:49:08;;;;;;;6.73;4.80;;;10.10;1.00;;;;;;4900666;29;20989;-77
2022/04/07 01:51:39;;;;;;;6.17;4.73;;;10.00;1.00;;;;;;4901328;29;20625;-76
2022/04/07 01:54:11;;;;;;;5.80;4.33;;;10.00;1.00;;;;;;4898874;29;20727;-74
2022/04/07 01:56:42;;;;;;;6.27;4.33;;;9.90;1.00;;;;;;4903387;29;20447;-73
2022/04/07 01:59:10;;;;;;;5.37;4.23;;;9.90;1.00;;;;;;4899643;29;20525;-76
2022/04/07 02:01:37;;;;;;;7.70;4.00;;;9.90;1.00;;;;;;4937074;23;20495;-76
2022/04/07 02:04:05;;;;;;;9.97;4.87;;;10.00;1.00;;;;;;4961936;28;20488;-72
2022/04/07 02:06:33;;;;;;;7.10;4.37;;;10.00;1.00;;;;;;4958035;28;20468;-76
2022/04/07 02:09:02;;;;;;;4.83;3.70;;;10.00;1.00;;;;;;4960579;28;20758;-76
2022/04/07 02:11:31;;;;;;;6.63;4.50;;;10.00;1.00;;;;;;4945949;28;20573;-75
2022/04/07 02:13:59;;;;;;;5.20;4.20;;;10.00;1.00;;;;;;4936398;28;20510;-75
2022/04/07 02:16:27;;;;;;;5.97;4.67;;;10.00;1.00;;;;;;4936084;28;20492;-75
2022/04/07 02:18:56;;;;;;;9.37;5.17;;;10.10;1.00;;;;;;4937358;28;20491;-76
2022/04/07 02:21:23;;;;;;;7.50;4.53;;;10.10;1.00;;;;;;4938062;28;20500;-75
2022/04/07 02:23:51;;;;;;;7.03;5.00;;;10.10;1.00;;;;;;4936217;28;20556;-75
2022/04/07 02:26:20;;;;;;;6.17;4.77;;;10.10;1.00;;;;;;4941839;28;20504;-75
2022/04/07 02:28:46;;;;;;;6.97;5.07;;;10.20;1.00;;;;;;4940793;28;20482;-76
2022/04/07 02:31:14;;;;;;;6.80;4.57;;;10.20;1.00;;;;;;4937995;28;20530;-75
2022/04/07 02:33:41;;;;;;;8.03;5.90;;;10.10;1.00;;;;;;4932695;28;20705;-76
2022/04/07 02:36:09;;;;;;;6.23;4.50;;;10.00;1.00;;;;;;4938413;28;20712;-75
2022/04/07 02:38:37;;;;;;;6.07;5.33;;;10.00;1.00;;;;;;4937824;28;20476;-75
2022/04/07 02:41:04;;;;;;;9.13;4.47;;;9.90;1.00;;;;;;4940935;28;20505;-76
2022/04/07 02:43:30;;;;;;;6.17;5.27;;;9.90;1.00;;;;;;4944157;28;20429;-75
2022/04/07 02:46:00;;;;;;;5.83;5.23;;;9.90;1.00;;;;;;4945346;28;20449;-76
2022/04/07 02:48:28;;;;;;;6.57;5.00;;;9.80;1.00;;;;;;4942856;28;20532;-74
2022/04/07 02:50:58;;;;;;;7.20;6.20;;;9.90;1.00;;;;;;4945409;28;20540;-75
2022/04/07 02:53:25;;;;;;;9.17;5.70;;;9.80;1.00;;;;;;4945935;28;20579;-74
2022/04/07 02:55:52;;;;;;;8.13;6.20;;;9.70;1.00;;;;;;4943753;28;20517;-74
2022/04/07 02:58:20;;;;;;;8.50;5.80;;;9.70;1.00;;;;;;4947581;28;20450;-74
2022/04/07 03:00:47;;;;;;;7.47;4.93;;;9.70;1.00;;;;;;4953349;28;20532;-75
2022/04/07 03:03:13;;;;;;;8.37;5.67;;;9.70;1.00;;;;;;4943144;28;20560;-76
2022/04/07 03:05:41;;;;;;;6.77;5.80;;;9.70;1.00;;;;;;4949776;28;20450;-76
2022/04/07 03:08:12;;;;;;;6.20;5.60;;;9.60;1.00;;;;;;4940371;28;20419;-75
2022/04/07 03:10:40;;;;;;;6.43;5.73;;;9.60;1.00;;;;;;4941167;28;20445;-75
2022/04/07 03:13:06;;;;;;;8.70;5.53;;;9.60;1.00;;;;;;4937341;28;20458;-74
2022/04/07 03:15:33;;;;;;;8.70;6.00;;;9.60;1.00;;;;;;4936919;28;20504;-75
2022/04/07 03:18:00;;;;;;;8.00;5.60;;;9.60;1.00;;;;;;4944505;28;20557;-74
2022/04/07 03:20:34;;;;;;;7.35;6.00;;;9.50;1.00;;;;;;4942460;28;20465;-75
2022/04/07 03:23:02;;;;;;;7.67;5.40;;;9.50;1.00;;;;;;4944527;28;20276;-76
2022/04/07 03:25:30;;;;;;;6.70;5.50;;;9.50;1.00;;;;;;4949972;28;20533;-77
2022/04/07 03:28:00;;;;;;;6.80;5.20;;;9.40;1.00;;;;;;4943110;28;20446;-75
2022/04/07 03:30:27;;;;;;;6.00;4.80;;;9.40;1.00;;;;;;4951918;28;20473;-76
2022/04/07 03:32:53;;;;;;;6.80;5.00;;;9.40;1.00;;;;;;4943941;28;20458;-76
2022/04/07 03:35:20;;;;;;;6.90;5.53;;;9.40;1.00;;;;;;4948413;28;20489;-77
2022/04/07 03:37:50;;;;;;;6.30;4.95;;;9.30;1.00;;;;;;4945794;28;20386;-76
2022/04/07 03:40:22;;;;;;;9.18;5.20;;;9.30;1.00;;;;;;4942938;28;20233;-76
2022/04/07 03:42:48;;;;;;;8.05;5.53;;;9.30;1.00;;;;;;4941054;28;20245;-76
2022/04/07 03:45:20;;;;;;;6.20;4.80;;;9.30;1.00;;;;;;4938536;28;20268;-75
2022/04/07 03:47:47;;;;;;;4.97;4.23;;;9.20;1.00;;;;;;4944678;28;20518;-75
2022/04/07 03:50:24;;;;;;;6.50;4.90;;;9.20;1.00;;;;;;4941311;28;21151;-75
2022/04/07 03:52:51;;;;;;;6.37;4.83;;;9.30;1.00;;;;;;4941571;28;20315;-75
2022/04/07 03:55:22;;;;;;;10.30;5.10;;;9.30;1.00;;;;;;4944574;28;20438;-76
2022/04/07 03:57:49;;;;;;;6.13;4.80;;;9.30;1.00;;;;;;4942907;28;20524;-76
2022/04/07 04:00:20;;;;;;;6.40;5.20;;;9.30;1.00;;;;;;4939720;28;20529;-76
2022/04/07 04:02:48;;;;;;;7.77;5.13;;;9.40;1.00;;;;;;4939678;28;20556;-76
2022/04/07 04:05:20;;;;;;;7.20;5.70;;;9.40;1.00;;;;;;4943064;28;20515;-76
2022/04/07 04:07:46;;;;;;;6.20;5.13;;;9.40;1.00;;;;;;4941340;28;20584;-76
2022/04/07 04:10:13;;;;;;;6.50;5.87;;;9.40;1.00;;;;;;4938828;28;20489;-75
2022/04/07 04:12:41;;;;;;;8.20;6.73;;;9.50;1.00;;;;;;4939421;28;20450;-76
2022/04/07 04:15:10;;;;;;;8.37;4.60;;;9.50;1.00;;;;;;4942937;28;20711;-74
2022/04/07 04:17:37;;;;;;;5.43;4.70;;;9.60;1.00;;;;;;4945136;28;20468;-74
2022/04/07 04:20:04;;;;;;;6.03;5.40;;;9.60;1.00;;;;;;4946042;28;20508;-75
2022/04/07 04:22:31;;;;;;;6.40;4.87;;;9.60;1.00;;;;;;4946085;28;20464;-75
2022/04/07 04:25:00;;;;;;;6.90;5.00;;;9.60;1.00;;;;;;4949492;28;20481;-75
2022/04/07 04:27:27;;;;;;;6.60;4.70;;;9.60;1.00;;;;;;4945470;28;20469;-75
2022/04/07 04:30:00;;;;;;;5.43;4.27;;;9.60;1.00;;;;;;4937455;28;21359;-75
2022/04/07 04:32:27;;;;;;;5.53;4.73;;;9.60;1.00;;;;;;4938024;28;20710;-75
2022/04/07 04:34:53;;;;;;;6.50;5.10;;;9.60;1.00;;;;;;4935864;28;20492;-75
2022/04/07 04:37:25;;;;;;;7.40;5.20;;;9.60;1.00;;;;;;4940761;28;20596;-74
2022/04/07 04:39:52;;;;;;;5.83;4.93;;;9.60;1.00;;;;;;4937360;28;20915;-75
2022/04/07 04:42:21;;;;;;;6.60;4.30;;;9.50;1.00;;;;;;4941306;28;20555;-75
2022/04/07 04:44:49;;;;;;;6.13;4.20;;;9.50;1.00;;;;;;4941687;28;20382;-75
2022/04/07 04:47:17;;;;;;;6.27;4.00;;;9.50;1.00;;;;;;4936878;28;20501;-74
2022/04/07 04:49:45;;;;;;;7.50;4.83;;;9.50;1.00;;;;;;4932521;28;20509;-75
2022/04/07 04:52:12;;;;;;;6.30;4.90;;;9.60;1.00;;;;;;4944282;28;20500;-74
2022/04/07 04:54:39;;;;;;;4.93;3.70;;;9.60;1.00;;;;;;4941622;28;20536;-74
2022/04/07 04:57:10;;;;;;;5.82;4.18;;;9.60;1.00;;;;;;4941861;28;20429;-74
2022/04/07 04:59:39;;;;;;;6.00;4.40;;;9.60;1.00;;;;;;4936467;28;20224;-75
2022/04/07 05:02:05;;;;;;;5.43;4.93;;;9.60;1.00;;;;;;4934621;28;20469;-75
2022/04/07 05:04:34;;;;;;;5.83;4.70;;;9.60;1.00;;;;;;4937441;28;20247;-75
2022/04/07 05:07:02;;;;;;;5.57;4.53;;;9.60;1.00;;;;;;4942285;28;20519;-74
2022/04/07 05:09:28;;;;;;;6.40;4.60;;;9.70;1.00;;;;;;4940261;28;20501;-74
2022/04/07 05:12:00;;;;;;;4.93;4.47;;;9.70;1.00;;;;;;4935368;28;20592;-75
2022/04/07 05:14:27;;;;;;;6.40;4.30;;;9.80;1.00;;;;;;4932863;28;20505;-75
2022/04/07 05:16:54;;;;;;;8.90;3.80;;;9.80;1.00;;;;;;4941159;28;20489;-75
2022/04/07 05:19:21;;;;;;;4.30;3.90;;;9.80;1.00;;;;;;4942955;28;20459;-75
2022/04/07 05:21:53;;;;;;;4.40;3.92;;;9.90;1.00;;;;;;4925243;28;20465;-75
2022/04/07 05:24:21;;;;;;;5.87;4.70;;;9.90;1.00;;;;;;4926989;28;20237;-75
2022/04/07 05:26:50;;;;;;;8.70;4.77;;;9.90;1.00;;;;;;4929195;28;20485;-75
2022/04/07 05:29:20;;;;;;;5.45;4.15;;;10.00;1.00;;;;;;4929239;28;20430;-75
2022/04/07 05:31:47;;;;;;;10.50;4.30;;;10.00;1.00;;;;;;4929805;28;20241;-76
2022/04/07 05:34:14;;;;;;;7.03;4.17;;;10.00;1.00;;;;;;4952858;28;20665;-76
2022/04/07 05:36:42;;;;;;;4.80;4.40;;;10.00;1.00;;;;;;4941707;28;20417;-77
2022/04/07 05:39:12;;;;;;;5.27;4.60;;;10.00;1.00;;;;;;4959022;28;20446;-76
2022/04/07 05:41:39;;;;;;;4.47;3.80;;;10.10;1.00;;;;;;4949921;28;20501;-75
2022/04/07 05:44:10;;;;;;;5.63;4.10;;;10.10;1.00;;;;;;4966549;28;20434;-75
2022/04/07 05:46:39;;;;;;;4.23;3.83;;;10.20;1.00;;;;;;4946556;28;20430;-76
2022/04/07 05:49:11;;;;;;;4.90;4.10;;;10.20;1.00;;;;;;4951963;28;20434;-76
2022/04/07 05:51:42;;;;;;;4.53;3.67;;;10.20;1.00;;;;;;4947824;28;20442;-75
2022/04/07 05:54:14;;;;;;;5.27;3.60;;;10.30;1.00;;;;;;4947805;28;20266;-76
2022/04/07 05:56:41;;;;;;;4.70;4.20;;;10.30;1.00;;;;;;4942927;28;20931;-75
2022/04/07 05:59:10;;;;;;;6.90;3.77;;;10.30;1.00;;;;;;4948178;28;20438;-75
2022/04/07 06:01:40;;;;;;;4.20;3.70;;;10.40;1.00;;;;;;4939433;28;20411;-74
2022/04/07 06:04:06;;;;;;;4.80;3.60;;;10.50;1.00;;;;;;4958065;28;20549;-74
2022/04/07 06:06:33;;;;;;;5.87;4.20;;;10.60;1.00;;;;;;4945489;28;20434;-75
2022/04/07 06:09:00;;;;;;;4.83;3.47;;;10.80;1.00;;;;;;4942026;28;20440;-75
2022/04/07 06:11:28;;;;;;;5.10;3.90;;;10.80;1.00;;;;;;4947166;28;20478;-75
2022/04/07 06:13:59;;;;;;;5.83;3.60;;;10.90;1.00;;;;;;4951827;28;20471;-75
2022/04/07 06:16:26;;;;;;;4.67;4.27;;;11.00;1.00;;;;;;4969063;28;20523;-76
2022/04/07 06:18:53;;;;;;;4.90;3.60;;;11.00;1.00;;;;;;4967240;28;20444;-73
2022/04/07 06:21:19;;;;;;;4.23;3.00;;;11.00;1.00;;;;;;4970514;28;20448;-74
2022/04/07 06:23:50;;;;;;;5.50;3.40;;;11.00;1.00;;;;;;4964362;28;20432;-76
2022/04/07 06:26:18;;;;;;;7.30;3.87;;;11.10;1.00;;;;;;4958652;28;20447;-76
2022/04/07 06:28:51;;;;;;;3.07;2.57;;;11.20;1.00;;;;;;4948350;28;20469;-76
2022/04/07 06:31:17;;;;;;;5.40;3.93;;;11.30;1.00;;;;;;4961530;28;20579;-75
2022/04/07 06:33:44;;;;;;;3.80;3.27;;;11.30;1.00;;;;;;4964967;28;20516;-76
2022/04/07 06:36:12;;;;;;;4.90;3.30;;;11.40;1.00;;;;;;4961915;28;20570;-75
2022/04/07 06:38:40;;;;;;;5.33;3.20;;;11.40;1.00;;;;;;4967620;28;20520;-75
2022/04/07 06:41:10;;;;;;;4.03;3.10;;;11.50;1.00;;;;;;4965519;28;20422;-75
2022/04/07 06:43:38;;;;;;;6.67;2.97;;;11.50;1.00;;;;;;4959293;28;20465;-75
2022/04/07 06:46:06;;;;;;;4.47;4.07;;;11.60;1.00;;;;;;4959776;28;20526;-77
2022/04/07 06:48:33;;;;;;;6.33;3.07;;;11.50;1.00;;;;;;4961843;28;21106;-75
2022/04/07 06:51:01;;;;;;;4.10;3.20;;;11.50;1.00;;;;;;4949429;28;20465;-77
2022/04/07 06:53:28;;;;;;;3.53;3.00;;;11.50;1.00;;;;;;4960942;28;20556;-76
2022/04/07 06:55:54;;;;;;;6.17;4.20;;;11.60;1.00;;;;;;4954052;28;20464;-75
2022/04/07 06:58:21;;;;;;;5.27;3.13;;;11.80;1.00;;;;;;4947335;28;20440;-76
2022/04/07 07:00:48;;;;;;;5.13;3.47;;;11.80;1.00;;;;;;4943256;28;20520;-75
2022/04/07 07:03:22;;;;;;;3.87;3.10;;;12.00;1.00;;;;;;4941528;28;20477;-75
2022/04/07 07:05:49;;;;;;;6.00;2.83;;;12.10;1.00;;;;;;4941780;28;20481;-78
2022/04/07 07:08:20;;;;;;;4.90;2.80;;;12.10;1.00;;;;;;4947989;28;20575;-77
2022/04/07 07:10:49;;;;;;;5.03;3.17;;;12.10;1.00;;;;;;4941086;28;20469;-76
2022/04/07 07:13:21;;;;;;;4.23;3.03;;;12.10;1.00;;;;;;4945893;28;21816;-76
2022/04/07 07:15:48;;;;;;;3.10;2.50;;;12.10;1.00;;;;;;4946879;28;20492;-76
2022/04/07 07:18:21;;;;;;;4.40;3.10;;;12.10;1.00;;;;;;4946714;28;20456;-75
2022/04/07 07:20:51;;;;;;;4.40;2.77;;;12.20;1.00;;;;;;4909630;28;20481;-77
2022/04/07 07:23:20;;;;;;;4.00;2.97;;;12.20;1.00;;;;;;4906200;28;21257;-77
2022/04/07 07:25:47;;;;;;;4.97;3.23;;;12.20;1.00;;;;;;4935660;28;20473;-78
2022/04/07 07:28:14;;;;;;;3.70;2.77;;;12.20;1.00;;;;;;4947729;28;20540;-77
2022/04/07 07:30:41;;;;;;;3.70;2.70;;;12.30;1.00;;;;;;4946767;28;20591;-77
2022/04/07 07:33:09;;;;;;;5.53;2.80;;;12.50;1.00;;;;;;4943410;28;20537;-78
2022/04/07 07:35:42;;;;;;;4.00;2.90;;;12.70;1.00;;;;;;4945905;28;20496;-78
2022/04/07 07:38:11;;;;;;;5.10;2.90;;;13.00;1.00;;;;;;4940043;28;20525;-78
2022/04/07 07:40:37;;;;;;;4.23;2.60;;;13.10;1.00;;;;;;4939818;28;20505;-79
2022/04/07 07:43:04;;;;;;;3.90;2.60;;;13.30;1.00;;;;;;4942150;28;20501;-77
2022/04/07 07:45:33;;;;;;;5.33;2.30;;;13.40;1.00;;;;;;4939099;28;20446;-77
2022/04/07 07:48:01;;;;;;;3.57;2.63;;;13.50;1.00;;;;;;4939218;28;20492;-77
2022/04/07 07:50:30;;;;;;;2.90;2.10;;;13.40;1.00;;;;;;4938275;28;20435;-77
2022/04/07 07:52:58;;;;;;;6.00;2.70;;;13.30;1.00;;;;;;4937272;28;20509;-78
2022/04/07 07:55:26;;;;;;;3.93;2.33;;;13.20;1.00;;;;;;4942485;28;20470;-78
2022/04/07 07:57:54;;;;;;;4.30;2.23;;;13.30;1.00;;;;;;4938741;28;20480;-77
2022/04/07 08:00:23;;;;;;;4.00;2.70;;;13.40;1.00;;;;;;4937144;28;20524;-76
2022/04/07 08:02:51;;;;;;;3.80;2.17;;;13.30;1.00;;;;;;4938248;28;20497;-75
2022/04/07 08:05:21;;;;;;;5.53;2.90;;;13.40;1.00;;;;;;4936241;28;20469;-77
2022/04/07 08:07:50;;;;;;;4.07;2.10;;;13.50;1.00;;;;;;4924096;28;20511;-77
2022/04/07 08:10:22;;;;;;;3.73;2.03;;;13.50;1.00;;;;;;4942964;28;20448;-76
2022/04/07 08:12:48;;;;;;;4.17;2.47;;;13.60;1.00;;;;;;4933268;28;20492;-76
2022/04/07 08:15:15;;;;;;;5.20;2.47;;;13.80;1.00;;;;;;4941605;28;20473;-77
2022/04/07 08:17:45;;;;;;;4.73;2.40;;;14.10;1.00;;;;;;4931525;28;20477;-76
2022/04/07 08:20:13;;;;;;;4.33;2.13;;;14.30;1.00;;;;;;4942493;28;20972;-77
2022/04/07 08:22:39;;;;;;;3.13;2.13;;;14.20;1.00;;;;;;4940425;28;20458;-76
2022/04/07 08:25:07;;;;;;;2.67;1.93;;;14.40;1.00;;;;;;4935670;28;20519;-76
2022/04/07 08:27:35;;;;;;;3.27;1.80;;;14.20;1.00;;;;;;4908052;28;20484;-76
2022/04/07 08:30:04;;;;;;;4.63;2.20;;;14.20;1.00;;;;;;4907974;28;20451;-76
2022/04/07 08:32:31;;;;;;;3.73;2.00;;;14.10;1.00;;;;;;4922375;28;20595;-76
2022/04/07 08:35:00;;;;;;;4.93;1.80;;;14.10;1.00;;;;;;4923085;28;20499;-76
2022/04/07 08:37:31;;;;;;;5.30;1.90;;;14.20;1.00;;;;;;4920976;28;20528;-76
2022/04/07 08:40:04;;;;;;;3.17;1.90;;;14.30;1.00;;;;;;4917150;28;20567;-76
2022/04/07 08:42:36;;;;;;;2.50;1.60;;;14.50;1.00;;;;;;4920749;28;20443;-76
2022/04/07 08:45:03;;;;;;;2.10;1.57;;;14.50;1.00;;;;;;4930754;28;20560;-76
2022/04/07 08:47:34;;;;;;;2.87;1.63;;;14.80;1.00;;;;;;4941397;28;20425;-77
2022/04/07 08:50:03;;;;;;;3.53;1.83;;;15.00;1.00;;;;;;4939161;28;20474;-76
2022/04/07 08:52:33;;;;;;;2.73;1.30;;;15.00;1.00;;;;;;4940624;28;20449;-76
2022/04/07 08:54:59;;;;;;;1.77;1.33;;;15.20;1.00;;;;;;4936747;28;20473;-76
2022/04/07 08:57:29;;;;;;;2.47;1.40;;;15.10;1.00;;;;;;4933638;28;21753;-76
2022/04/07 08:59:57;;;;;;;2.93;1.20;;;15.00;1.00;;;;;;4939062;28;20457;-76
2022/04/07 09:02:24;;;;;;;2.00;1.10;;;14.90;1.00;;;;;;4941611;28;20531;-77
2022/04/07 09:04:58;;;;;;;4.67;1.50;;;14.80;1.00;;;;;;4925683;28;20456;-76
2022/04/07 09:07:33;;;;;;;3.63;1.30;;;14.60;1.00;;;;;;4918814;28;21059;-76
2022/04/07 09:10:00;;;;;;;2.90;1.30;;;14.50;1.00;;;;;;4935264;28;20537;-77
2022/04/07 09:12:30;;;;;;;2.13;1.23;;;14.40;1.00;;;;;;4910285;28;20692;-78
2022/04/07 09:15:01;;;;;;;1.90;1.10;;;14.40;1.00;;;;;;4916133;28;20473;-78
2022/04/07 09:17:32;;;;;;;2.10;1.37;;;14.10;1.00;;;;;;4927512;28;21319;-78
2022/04/07 09:20:13;;;;;;;3.40;1.43;;;14.20;1.00;;;;;;4945027;28;20504;-77
2022/04/07 09:22:39;;;;;;;3.40;1.63;;;14.30;1.00;;;;;;4941201;28;20465;-76
2022/04/07 09:25:07;;;;;;;5.40;1.30;;;14.50;1.00;;;;;;4937385;28;20547;-76
2022/04/07 09:27:34;;;;;;;3.00;1.23;;;14.50;1.00;;;;;;4936110;28;20496;-76
2022/04/07 09:30:08;;;;;;;2.27;1.00;;;14.70;1.00;;;;;;4938671;28;20435;-77
2022/04/07 09:32:44;;;;;;;2.43;1.30;;;15.70;1.00;;;;;;4941396;28;20464;-76
2022/04/07 09:35:13;;;;;;;2.03;0.90;;;16.10;1.00;;;;;;4937104;28;20436;-77
2022/04/07 09:37:42;;;;;;;2.67;1.10;;;16.00;1.00;;;;;;4935414;28;20488;-77
2022/04/07 09:40:15;;;;;;;2.17;1.10;;;15.80;1.00;;;;;;4939040;28;20441;-78
2022/04/07 09:42:44;;;;;;;2.47;0.80;;;15.60;1.00;;;;;;4932989;28;20418;-77
2022/04/07 09:45:13;;;;;;;3.70;1.40;;;15.80;1.00;;;;;;4936025;28;20501;-77
2022/04/07 09:47:44;;;;;;;2.90;0.93;;;16.10;1.00;;;;;;4928856;28;20571;-77
2022/04/07 09:50:23;;;;;;;3.50;1.40;;;16.30;1.00;;;;;;4937833;28;20537;-77
2022/04/07 09:52:58;;;;;;;1.90;0.80;;;16.40;1.00;;;;;;4941100;28;20476;-77
2022/04/07 09:55:28;;;;;;;6.53;1.10;;;16.20;1.00;;;;;;4942912;28;20441;-77
2022/04/07 09:57:56;;;;;;;3.07;0.90;;;16.50;1.00;;;;;;4939186;28;20569;-77
2022/04/07 10:00:26;;;;;;;4.10;1.20;;;17.30;1.00;;;;;;4932740;28;20523;-77
2022/04/07 10:02:54;;;;;;;2.73;1.00;;;17.00;1.00;;;;;;4927180;28;20456;-76
2022/04/07 10:05:24;;;;;;;3.00;0.80;;;16.40;1.00;;;;;;4936895;28;20481;-77
2022/04/07 10:07:53;;;;;;;3.20;1.00;;;16.00;1.00;;;;;;4939708;28;20445;-77
2022/04/07 10:10:20;;;;;;;1.50;0.77;;;15.70;1.00;;;;;;4938892;28;21035;-77
2022/04/07 10:12:47;;;;;;;1.70;1.00;;;15.20;1.00;;;;;;4932289;28;20522;-77
2022/04/07 10:15:15;;;;;;;1.80;1.00;;;14.90;1.00;;;;;;4924780;28;20566;-76
2022/04/07 10:17:44;;;;;;;3.20;1.00;;;14.90;1.00;;;;;;4927200;28;20505;-76
2022/04/07 10:20:17;;;;;;;2.33;0.93;;;14.90;1.00;;;;;;4934478;28;20576;-76
2022/04/07 10:22:56;;;;;;;1.60;0.80;;;15.40;1.00;;;;;;4940905;28;20454;-76
2022/04/07 10:25:24;;;;;;;2.43;1.00;;;16.10;1.00;;;;;;4939386;28;20476;-76
2022/04/07 10:27:54;;;;;;;2.63;1.10;;;16.40;1.00;;;;;;4935188;28;20574;-76
2022/04/07 10:30:45;;;;;;;2.37;1.03;;;16.20;1.00;;;;;;4939214;28;20475;-76
2022/04/07 10:33:32;;;;;;;1.60;0.90;;;15.80;1.00;;;;;;4941638;28;20465;-76
2022/04/07 10:36:13;;;;;;;2.10;1.20;;;15.60;1.00;;;;;;4935863;28;20433;-76
2022/04/07 10:38:44;;;;;;;2.43;0.93;;;15.40;1.00;;;;;;4930371;28;21311;-76
2022/04/07 10:41:56;;;;;;;4.00;1.10;;;15.30;1.00;;;;;;4939679;28;20432;-76
2022/04/07 10:44:32;;;;;;;1.77;0.80;;;15.10;1.00;;;;;;4934337;28;20569;-76
2022/04/07 10:47:02;;;;;;;2.60;1.80;;;15.00;1.00;;;;;;4936499;28;22987;-76
2022/04/07 10:49:33;;;;;;;2.33;1.10;;;15.00;1.00;;;;;;4939919;28;20441;-76
2022/04/07 10:52:04;;;;;;;3.90;1.20;;;14.90;1.00;;;;;;4935020;28;21333;-76
2022/04/07 10:54:32;;;;;;;2.90;0.93;;;14.80;1.00;;;;;;4940770;28;20603;-77
2022/04/07 10:57:01;;;;;;;1.60;1.10;;;14.70;1.00;;;;;;4945550;28;20478;-77
2022/04/07 10:59:29;;;;;;;2.63;1.00;;;14.40;1.00;;;;;;4937105;28;20485;-77
2022/04/07 11:02:04;;;;;;;3.60;1.10;;;14.10;1.00;;;;;;4939800;28;20465;-77
2022/04/07 11:04:32;;;;;;;2.57;1.33;;;13.80;1.00;;;;;;4931757;28;20485;-76
2022/04/07 11:07:16;;;;;;;2.30;1.20;;;13.50;1.00;;;;;;4940484;28;20549;-77
2022/04/07 11:10:05;;;;;;;2.37;1.43;;;13.20;1.00;;;;;;4940193;28;20453;-76
2022/04/07 11:12:37;;;;;;;2.27;1.17;;;13.00;1.00;;;;;;4938322;28;20466;-76
2022/04/07 11:15:43;;;;;;;2.40;1.20;;;12.70;1.00;;;;;;4930106;28;20524;-76
2022/04/07 11:18:34;;;;;;;2.07;1.23;;;12.60;1.00;;;;;;4929369;28;20887;-76
2022/04/07 11:21:13;;;;;;;2.03;1.37;;;12.50;1.00;;;;;;4925558;28;20545;-76
2022/04/07 11:23:43;;;;;;;2.50;1.20;;;12.60;1.00;;;;;;4930940;28;20527;-76
2022/04/07 11:26:19;;;;;;;1.90;1.27;;;12.50;1.00;;;;;;4941170;28;20437;-76
2022/04/07 11:29:05;;;;;;;1.77;1.03;;;12.70;1.00;;;;;;4940385;28;20461;-76
2022/04/07 11:31:53;;;;;;;1.80;1.00;;;12.80;1.00;;;;;;4926337;28;20576;-76
2022/04/07 11:34:42;;;;;;;2.50;1.33;;;13.00;1.00;;;;;;4933021;28;20489;-76
2022/04/07 11:37:20;;;;;;;1.83;1.10;;;13.10;1.00;;;;;;4929685;28;20512;-76
2022/04/07 11:39:53;;;;;;;2.93;1.20;;;13.30;1.00;;;;;;4925089;28;20524;-76
2022/04/07 11:42:22;;;;;;;2.20;1.10;;;13.40;1.00;;;;;;4927330;28;20508;-76
2022/04/07 11:44:59;;;;;;;2.13;0.90;;;13.50;1.00;;;;;;4933013;28;27553;-75
2022/04/07 11:47:28;;;;;;;1.67;0.90;;;13.60;1.00;;;;;;4932993;28;20469;-75
2022/04/07 11:50:03;;;;;;;2.27;1.00;;;13.70;1.00;;;;;;4926802;28;20568;-77
2022/04/07 11:52:36;;;;;;;1.93;0.80;;;14.00;1.00;;;;;;4902119;28;20437;-76
2022/04/07 11:55:05;;;;;;;2.13;0.83;;;14.40;1.00;;;;;;4927233;28;20590;-75
2022/04/07 11:57:35;;;;;;;1.60;0.80;;;14.40;1.00;;;;;;4911474;28;20433;-77
2022/04/07 12:00:06;;;;;;;1.77;0.93;;;14.20;1.00;;;;;;4923340;28;20925;-79
2022/04/07 12:02:39;;;;;;;2.27;0.87;;;13.80;1.00;;;;;;4921277;28;20441;-76
2022/04/07 12:05:11;;;;;;;2.43;0.80;;;13.50;1.00;;;;;;4908293;28;21385;-77
2022/04/07 12:07:40;;;;;;;3.10;1.17;;;13.20;1.00;;;;;;4910703;28;20484;-76
2022/04/07 12:10:11;;;;;;;2.17;1.07;;;12.90;1.00;;;;;;4924787;28;20466;-77
2022/04/07 12:12:42;;;;;;;3.03;1.00;;;12.70;1.00;;;;;;4905408;28;20900;-76
2022/04/07 12:15:16;;;;;;;2.60;1.20;;;12.40;1.00;;;;;;4923473;28;20453;-76
2022/04/07 12:18:02;;;;;;;1.87;0.90;;;12.20;1.00;;;;;;4918936;28;20475;-76
2022/04/07 12:20:32;;;;;;;3.70;1.20;;;12.00;1.00;;;;;;4917689;28;20468;-77
2022/04/07 12:23:09;;;;;;;3.40;0.80;;;11.90;1.00;;;;;;4931074;28;20607;-75
2022/04/07 12:25:36;;;;;;;3.73;1.07;;;11.80;1.00;;;;;;4923809;28;20485;-75
2022/04/07 12:28:10;;;;;;;3.80;1.60;;;11.80;1.00;;;;;;4933890;28;20523;-76
2022/04/07 12:30:48;;;;;;;3.20;1.00;;;11.70;1.00;;;;;;4927298;28;20449;-77
2022/04/07 12:33:36;;;;;;;2.53;1.37;;;11.60;1.00;;;;;;4933301;28;20460;-76
2022/04/07 12:36:03;;;;;;;5.80;1.20;;;11.60;1.00;;;;;;4921633;28;20492;-76
2022/04/07 12:38:33;;;;;;;1.87;1.10;;;11.50;1.00;;;;;;4922982;28;20453;-77
2022/04/07 12:41:14;;;;;;;3.00;1.37;;;11.50;1.00;;;;;;4924706;28;20472;-77
2022/04/07 12:43:46;;;;;;;2.43;1.10;;;11.40;1.00;;;;;;4925358;28;20459;-75
2022/04/07 12:46:15;;;;;;;1.70;1.03;;;11.40;1.00;;;;;;4917928;28;20422;-77
2022/04/07 12:49:05;;;;;;;1.70;0.90;;;11.40;1.00;;;;;;4925683;28;20496;-76
2022/04/07 12:51:35;;;;;;;2.10;0.97;;;11.50;1.00;;;;;;4934840;28;20421;-77
2022/04/07 12:54:14;;;;;;;1.73;1.07;;;11.50;1.00;;;;;;4923165;28;20548;-76
2022/04/07 12:56:41;;;;;;;4.13;1.47;;;11.50;1.00;;;;;;4917051;28;20545;-77
2022/04/07 12:59:15;;;;;;;2.20;1.10;;;11.40;1.00;;;;;;4922015;28;20925;-77
2022/04/07 13:01:49;;;;;;;2.63;1.00;;;11.40;1.00;;;;;;4914112;28;20476;-77
2022/04/07 13:04:17;;;;;;;2.83;1.23;;;11.40;1.00;;;;;;4934881;28;20528;-78
2022/04/07 13:06:44;;;;;;;1.93;1.00;;;11.30;1.00;;;;;;4924003;28;20548;-76
2022/04/07 13:09:16;;;;;;;4.63;1.57;;;11.40;1.00;;;;;;4938453;28;20568;-78
2022/04/07 13:11:45;;;;;;;2.10;1.20;;;11.50;1.00;;;;;;4937077;28;21040;-78
2022/04/07 13:14:14;;;;;;;3.53;1.20;;;11.60;1.00;;;;;;4936959;28;20628;-76